createdAt,value
2023-01-29T00:02:10.905Z,8.90
2023-01-29T00:04:37.704Z,8.80
2023-01-29T00:07:05.471Z,8.90
2023-01-29T00:09:32.260Z,8.80
2023-01-29T00:12:05.174Z,9.00
2023-01-29T00:14:31.856Z,9.00
2023-01-29T00:16:58.685Z,8.70
2023-01-29T00:19:25.395Z,8.60
2023-01-29T00:21:52.246Z,8.80
2023-01-29T00:24:19.038Z,8.80
2023-01-29T00:26:45.825Z,8.70
2023-01-29T00:29:12.566Z,8.70
2023-01-29T00:31:39.470Z,8.80
2023-01-29T00:34:06.196Z,8.50
2023-01-29T00:36:32.945Z,8.50
2023-01-29T00:39:02.635Z,8.70
2023-01-29T00:41:51.222Z,8.80
2023-01-29T00:44:37.575Z,9.00
2023-01-29T00:47:25.269Z,9.00
2023-01-29T00:49:52.003Z,8.70
2023-01-29T00:52:32.274Z,8.90
2023-01-29T00:58:45.436Z,8.70
2023-01-29T01:01:12.117Z,8.70
2023-01-29T01:03:42.455Z,8.50
2023-01-29T01:06:10.769Z,8.60
2023-01-29T01:08:58.090Z,8.70
2023-01-29T01:11:24.932Z,8.90
2023-01-29T01:13:51.779Z,8.80
2023-01-29T01:16:22.175Z,8.70
2023-01-29T01:18:49.334Z,8.80
2023-01-29T01:21:18.357Z,8.90
2023-01-29T01:23:47.214Z,8.80
2023-01-29T01:26:14.286Z,9.00
2023-01-29T01:28:42.257Z,9.00
2023-01-29T01:31:12.376Z,9.00
2023-01-29T01:33:40.263Z,8.70
2023-01-29T01:36:13.960Z,8.60
2023-01-29T01:38:46.515Z,9.10
2023-01-29T01:41:17.314Z,8.80
2023-01-29T01:43:55.768Z,8.80
2023-01-29T01:46:23.447Z,8.70
2023-01-29T01:48:59.447Z,8.70
2023-01-29T01:51:32.454Z,8.70
2023-01-29T01:54:08.130Z,8.70
2023-01-29T01:56:40.923Z,8.60
2023-01-29T01:59:11.929Z,8.60
2023-01-29T02:01:42.917Z,8.80
2023-01-29T02:04:31.792Z,8.90
2023-01-29T02:07:19.775Z,8.90
2023-01-29T02:09:53.631Z,8.60
2023-01-29T02:12:21.684Z,8.60
2023-01-29T02:14:52.078Z,8.60
2023-01-29T02:17:20.393Z,8.70
2023-01-29T02:20:00.901Z,8.60
2023-01-29T02:23:02.619Z,8.60
2023-01-29T02:25:59.385Z,8.70
2023-01-29T02:28:48.984Z,8.50
2023-01-29T02:31:32.880Z,8.50
2023-01-29T02:34:14.995Z,8.50
2023-01-29T02:37:19.172Z,8.40
2023-01-29T02:40:31.348Z,8.40
2023-01-29T02:43:51.261Z,8.20
2023-01-29T02:46:34.536Z,8.40
2023-01-29T02:49:23.566Z,8.50
2023-01-29T02:52:18.345Z,8.50
2023-01-29T02:55:11.089Z,8.40
2023-01-29T02:57:42.004Z,8.50
2023-01-29T03:00:24.486Z,8.40
2023-01-29T03:03:11.866Z,8.40
2023-01-29T03:06:02.237Z,8.40
2023-01-29T03:08:43.007Z,8.50
2023-01-29T03:11:15.229Z,8.40
2023-01-29T03:13:47.371Z,8.40
2023-01-29T03:16:39.185Z,8.30
2023-01-29T03:19:14.408Z,8.40
2023-01-29T03:22:00.212Z,8.40
2023-01-29T03:25:06.420Z,8.60
2023-01-29T03:28:24.059Z,8.60
2023-01-29T03:31:21.471Z,8.60
2023-01-29T03:34:00.838Z,8.60
2023-01-29T03:36:45.430Z,8.50
2023-01-29T03:39:15.108Z,8.40
2023-01-29T03:41:47.621Z,8.80
2023-01-29T03:44:29.232Z,8.60
2023-01-29T03:47:21.073Z,8.80
2023-01-29T03:49:59.090Z,8.50
2023-01-29T03:52:44.124Z,8.50
2023-01-29T03:55:16.972Z,8.80
2023-01-29T03:57:57.478Z,8.50
2023-01-29T04:00:29.035Z,8.80
2023-01-29T04:03:11.815Z,8.80
2023-01-29T04:06:05.525Z,8.70
2023-01-29T04:08:36.521Z,8.70
2023-01-29T04:11:10.677Z,8.50
2023-01-29T04:13:38.745Z,8.60
2023-01-29T04:16:09.899Z,8.70
2023-01-29T04:18:37.817Z,8.70
2023-01-29T04:21:07.397Z,8.80
2023-01-29T04:23:34.375Z,8.90
2023-01-29T04:26:28.674Z,8.70
2023-01-29T04:29:32.116Z,8.70
2023-01-29T04:32:11.600Z,8.70
2023-01-29T04:34:51.812Z,9.20
2023-01-29T04:37:37.691Z,8.90
2023-01-29T04:40:15.839Z,8.80
2023-01-29T04:42:46.525Z,8.70
2023-01-29T04:45:17.867Z,8.70
2023-01-29T04:48:08.609Z,8.80
2023-01-29T04:51:12.975Z,8.50
2023-01-29T04:54:02.630Z,8.60
2023-01-29T04:56:41.017Z,8.40
2023-01-29T04:59:12.154Z,8.90
2023-01-29T05:01:39.284Z,8.90
2023-01-29T05:04:11.591Z,9.00
2023-01-29T05:06:41.681Z,8.60
2023-01-29T05:09:09.536Z,8.80
2023-01-29T05:11:37.089Z,8.70
2023-01-29T05:14:16.375Z,8.60
2023-01-29T05:16:51.515Z,8.50
2023-01-29T05:19:19.407Z,8.40
2023-01-29T05:21:48.721Z,8.30
2023-01-29T05:24:16.990Z,8.40
2023-01-29T05:27:05.340Z,8.20
2023-01-29T05:29:33.433Z,8.30
2023-01-29T05:32:00.324Z,8.10
2023-01-29T05:34:27.025Z,8.00
2023-01-29T05:36:53.745Z,8.10
2023-01-29T05:39:20.525Z,8.00
2023-01-29T05:41:49.287Z,8.10
2023-01-29T05:44:15.951Z,7.90
2023-01-29T05:46:43.833Z,8.20
2023-01-29T05:49:10.855Z,8.00
2023-01-29T05:51:37.886Z,8.00
2023-01-29T05:54:05.971Z,8.70
2023-01-29T05:56:48.846Z,6.70
2023-01-29T05:59:17.589Z,7.50
2023-01-29T06:01:44.348Z,7.80
2023-01-29T06:04:13.480Z,5.80
2023-01-29T06:06:40.134Z,5.30
2023-01-29T06:09:06.954Z,5.10
2023-01-29T06:11:33.647Z,5.20
2023-01-29T06:14:00.405Z,5.10
2023-01-29T06:16:27.132Z,4.90
2023-01-29T06:18:53.943Z,4.80
2023-01-29T06:21:20.711Z,4.90
2023-01-29T06:23:47.486Z,4.80
2023-01-29T06:26:15.932Z,5.10
2023-01-29T06:28:43.765Z,4.90
2023-01-29T06:31:35.354Z,5.30
2023-01-29T06:34:00.082Z,5.10
2023-01-29T06:36:26.817Z,4.70
2023-01-29T06:38:53.532Z,5.30
2023-01-29T06:41:25.165Z,5.20
2023-01-29T06:43:52.155Z,5.60
2023-01-29T06:46:20.055Z,5.80
2023-01-29T06:48:46.942Z,5.50
2023-01-29T06:51:13.616Z,5.00
2023-01-29T06:53:41.157Z,4.90
2023-01-29T06:56:08.706Z,4.90
2023-01-29T06:58:38.586Z,4.90
2023-01-29T07:01:17.342Z,5.20
2023-01-29T07:03:52.601Z,6.10
2023-01-29T07:06:19.672Z,5.60
2023-01-29T07:08:46.427Z,5.20
2023-01-29T07:11:13.551Z,5.00
2023-01-29T07:13:40.186Z,5.60
2023-01-29T07:16:07.147Z,6.10
2023-01-29T07:18:33.975Z,6.40
2023-01-29T07:21:05.356Z,6.80
2023-01-29T07:23:32.238Z,7.90
2023-01-29T07:26:02.559Z,7.40
2023-01-29T07:28:30.384Z,7.40
2023-01-29T07:30:58.726Z,6.90
2023-01-29T07:33:25.956Z,6.30
2023-01-29T07:35:53.975Z,6.70
2023-01-29T07:38:20.851Z,7.40
2023-01-29T07:40:49.005Z,7.50
2023-01-29T07:43:16.295Z,7.80
2023-01-29T07:45:43.373Z,7.80
2023-01-29T07:48:13.740Z,7.40
2023-01-29T07:50:40.992Z,8.30
2023-01-29T07:53:15.206Z,8.00
2023-01-29T07:55:45.211Z,8.40
2023-01-29T07:58:12.717Z,9.10
2023-01-29T08:00:39.672Z,8.40
2023-01-29T08:03:10.762Z,7.50
2023-01-29T08:05:37.613Z,8.10
2023-01-29T08:08:07.355Z,8.50
2023-01-29T08:10:36.115Z,8.20
2023-01-29T08:13:04.604Z,8.40
2023-01-29T08:15:32.121Z,9.60
2023-01-29T08:17:58.897Z,8.40
2023-01-29T08:20:26.185Z,8.10
2023-01-29T08:23:06.803Z,7.50
2023-01-29T08:25:33.986Z,7.40
2023-01-29T08:28:01.158Z,7.80
2023-01-29T08:30:30.240Z,8.30
2023-01-29T08:32:57.170Z,9.40
2023-01-29T08:35:24.377Z,7.90
2023-01-29T08:37:54.888Z,8.20
2023-01-29T08:40:21.745Z,9.10
2023-01-29T08:42:48.425Z,11.30
2023-01-29T08:45:15.357Z,10.90
2023-01-29T08:47:49.779Z,9.10
2023-01-29T08:50:17.919Z,8.60
2023-01-29T08:52:45.844Z,8.60
2023-01-29T08:55:13.101Z,9.10
2023-01-29T08:57:39.983Z,9.60
2023-01-29T09:00:09.296Z,9.20
2023-01-29T09:02:38.691Z,8.90
2023-01-29T09:05:07.119Z,9.10
2023-01-29T09:07:39.600Z,9.70
2023-01-29T09:10:09.024Z,8.50
2023-01-29T09:12:35.703Z,9.70
2023-01-29T09:15:02.441Z,9.10
2023-01-29T09:17:29.208Z,10.20
2023-01-29T09:19:56.054Z,10.90
2023-01-29T09:22:22.685Z,9.60
2023-01-29T09:24:49.560Z,10.90
2023-01-29T09:27:22.884Z,10.90
2023-01-29T09:29:49.592Z,8.80
2023-01-29T09:32:23.217Z,10.70
2023-01-29T09:34:58.538Z,8.90
2023-01-29T09:37:25.330Z,10.20
2023-01-29T09:39:51.977Z,10.30
2023-01-29T09:42:42.259Z,9.40
2023-01-29T09:45:26.998Z,7.90
2023-01-29T09:47:58.882Z,10.50
2023-01-29T09:50:40.067Z,11.20
2023-01-29T09:53:21.672Z,9.90
2023-01-29T09:56:09.830Z,8.30
2023-01-29T09:58:40.323Z,8.90
2023-01-29T10:01:15.933Z,10.70
2023-01-29T10:03:51.344Z,8.90
2023-01-29T10:07:01.551Z,8.40
2023-01-29T10:09:43.575Z,11.60
2023-01-29T10:12:34.880Z,10.70
2023-01-29T10:15:14.068Z,8.80
2023-01-29T10:18:11.930Z,11.30
2023-01-29T10:21:30.432Z,11.30
2023-01-29T10:24:31.447Z,9.30
2023-01-29T10:26:58.850Z,7.60
2023-01-29T10:29:27.084Z,9.30
2023-01-29T10:31:59.476Z,8.80
2023-01-29T10:34:34.410Z,8.40
2023-01-29T10:37:06.716Z,11.10
2023-01-29T10:39:33.392Z,11.80
2023-01-29T10:42:22.940Z,11.20
2023-01-29T10:45:07.942Z,11.20
2023-01-29T10:47:52.848Z,9.70
2023-01-29T10:50:51.769Z,9.60
2023-01-29T10:53:43.453Z,11.00
2023-01-29T10:56:27.335Z,9.30
2023-01-29T10:58:58.599Z,10.60
2023-01-29T11:01:26.805Z,9.20
2023-01-29T11:04:00.686Z,10.00
2023-01-29T11:06:34.224Z,11.30
2023-01-29T11:09:28.783Z,11.30
2023-01-29T11:12:04.506Z,9.60
2023-01-29T11:15:22.628Z,10.20
2023-01-29T11:18:21.256Z,7.70
2023-01-29T11:21:02.266Z,9.70
2023-01-29T11:23:32.477Z,9.50
2023-01-29T11:26:00.440Z,8.20
2023-01-29T11:28:42.581Z,10.30
2023-01-29T11:31:38.023Z,10.30
2023-01-29T11:34:16.624Z,8.90
2023-01-29T11:36:44.964Z,10.40
2023-01-29T11:39:19.682Z,8.60
2023-01-29T11:42:00.565Z,9.50
2023-01-29T11:44:39.524Z,9.40
2023-01-29T11:47:30.266Z,9.60
2023-01-29T11:49:59.691Z,8.70
2023-01-29T11:52:36.373Z,7.90
2023-01-29T11:55:18.034Z,7.10
2023-01-29T11:57:51.263Z,7.40
2023-01-29T12:00:22.086Z,8.10
2023-01-29T12:02:54.920Z,9.60
2023-01-29T12:05:24.760Z,8.90
2023-01-29T12:07:59.798Z,11.10
2023-01-29T12:10:35.615Z,11.20
2023-01-29T12:13:19.859Z,11.10
2023-01-29T12:15:48.489Z,10.70
2023-01-29T12:18:35.588Z,11.00
2023-01-29T12:21:04.753Z,9.90
2023-01-29T12:23:44.627Z,11.50
2023-01-29T12:26:34.337Z,11.00
2023-01-29T12:29:25.379Z,13.10
2023-01-29T12:31:55.215Z,12.40
2023-01-29T12:34:46.859Z,11.20
2023-01-29T12:37:30.740Z,11.00
2023-01-29T12:40:16.356Z,10.90
2023-01-29T12:42:53.807Z,11.10
2023-01-29T12:45:23.783Z,12.50
2023-01-29T12:47:57.177Z,10.60
2023-01-29T12:50:29.723Z,12.50
2023-01-29T12:53:00.532Z,12.30
2023-01-29T12:55:41.499Z,12.20
2023-01-29T12:58:20.989Z,11.10
2023-01-29T13:00:52.742Z,12.40
2023-01-29T13:03:55.731Z,13.00
2023-01-29T13:06:36.394Z,11.50
2023-01-29T13:09:11.755Z,11.70
2023-01-29T13:11:45.534Z,11.50
2023-01-29T13:14:28.857Z,10.00
2023-01-29T13:17:07.593Z,10.80
2023-01-29T13:19:42.182Z,12.60
2023-01-29T13:22:25.797Z,12.90
2023-01-29T13:25:04.196Z,12.40
2023-01-29T13:27:37.730Z,11.10
2023-01-29T13:30:05.217Z,12.50
2023-01-29T13:32:34.815Z,11.80
2023-01-29T13:35:05.897Z,13.20
2023-01-29T13:37:36.125Z,10.60
2023-01-29T13:40:06.712Z,10.20
2023-01-29T13:42:38.821Z,11.30
2023-01-29T13:45:07.967Z,10.70
2023-01-29T13:47:39.319Z,11.20
2023-01-29T13:50:11.104Z,11.70
2023-01-29T13:52:39.875Z,11.20
2023-01-29T13:55:31.240Z,11.60
2023-01-29T13:58:00.233Z,11.50
2023-01-29T14:00:50.596Z,12.90
2023-01-29T14:03:17.405Z,14.10
2023-01-29T14:06:00.874Z,12.50
2023-01-29T14:08:38.824Z,13.60
2023-01-29T14:11:34.473Z,11.60
2023-01-29T14:14:01.204Z,12.10
2023-01-29T14:16:34.935Z,12.50
2023-01-29T14:19:05.740Z,12.40
2023-01-29T14:21:37.853Z,13.30
2023-01-29T14:24:31.405Z,11.60
2023-01-29T14:26:58.214Z,11.80
2023-01-29T14:29:39.363Z,12.30
2023-01-29T14:32:06.035Z,13.10
2023-01-29T14:34:44.294Z,11.70
2023-01-29T14:37:17.292Z,12.00
2023-01-29T14:39:52.263Z,13.20
2023-01-29T14:42:24.400Z,11.90
2023-01-29T14:44:58.588Z,14.10
2023-01-29T14:47:27.985Z,12.50
2023-01-29T14:49:58.634Z,12.00
2023-01-29T14:52:35.673Z,11.80
2023-01-29T14:55:06.864Z,11.30
2023-01-29T14:57:35.645Z,12.70
2023-01-29T15:00:14.951Z,12.00
2023-01-29T15:02:44.566Z,12.60
2023-01-29T15:05:20.477Z,13.00
2023-01-29T15:08:23.813Z,13.90
2023-01-29T15:11:14.591Z,12.00
2023-01-29T15:14:06.789Z,11.10
2023-01-29T15:17:05.972Z,13.40
2023-01-29T15:19:37.819Z,12.50
2023-01-29T15:22:08.689Z,13.70
2023-01-29T15:24:37.192Z,13.10
2023-01-29T15:27:06.379Z,13.20
2023-01-29T15:29:33.233Z,12.00
2023-01-29T15:32:01.384Z,12.70
2023-01-29T15:34:28.276Z,11.90
2023-01-29T15:36:55.048Z,13.20
2023-01-29T15:39:24.177Z,13.90
2023-01-29T15:42:10.552Z,12.50
2023-01-29T15:44:43.907Z,12.60
2023-01-29T15:47:10.925Z,12.60
2023-01-29T15:49:39.818Z,14.20
2023-01-29T15:52:15.375Z,12.60
2023-01-29T15:54:42.295Z,12.60
2023-01-29T15:57:23.721Z,12.60
2023-01-29T15:59:52.268Z,14.20
2023-01-29T16:02:30.781Z,12.90
2023-01-29T16:04:57.841Z,11.00
2023-01-29T16:07:24.684Z,11.90
2023-01-29T16:09:53.850Z,12.30
2023-01-29T16:12:20.818Z,11.80
2023-01-29T16:14:49.692Z,13.30
2023-01-29T16:17:30.073Z,13.50
2023-01-29T16:19:59.233Z,13.10
2023-01-29T16:22:30.846Z,11.60
2023-01-29T16:25:01.935Z,12.80
2023-01-29T16:27:30.547Z,12.10
2023-01-29T16:29:57.358Z,11.10
2023-01-29T16:32:24.366Z,13.80
2023-01-29T16:34:57.149Z,14.00
2023-01-29T16:37:35.714Z,12.90
2023-01-29T16:40:24.775Z,12.60
2023-01-29T16:43:17.204Z,12.30
2023-01-29T16:46:01.103Z,11.60
2023-01-29T16:48:32.639Z,13.40
2023-01-29T16:51:22.549Z,11.20
2023-01-29T16:54:18.271Z,12.50
2023-01-29T16:56:50.259Z,12.20
2023-01-29T16:59:20.754Z,11.60
2023-01-29T17:01:49.332Z,12.30
2023-01-29T17:04:18.673Z,11.40
2023-01-29T17:06:47.924Z,11.10
2023-01-29T17:09:30.238Z,11.30
2023-01-29T17:12:00.303Z,8.90
2023-01-29T17:14:29.797Z,9.30
2023-01-29T17:17:01.710Z,11.00
2023-01-29T17:19:30.164Z,11.50
2023-01-29T17:21:58.971Z,11.10
2023-01-29T17:24:26.325Z,11.80
2023-01-29T17:26:53.583Z,9.40
2023-01-29T17:29:26.633Z,8.50
2023-01-29T17:31:53.385Z,9.60
2023-01-29T17:34:20.133Z,8.80
2023-01-29T17:36:46.848Z,12.00
2023-01-29T17:39:22.008Z,12.80
2023-01-29T17:41:55.174Z,10.20
2023-01-29T17:44:22.203Z,13.30
2023-01-29T17:46:49.193Z,15.10
2023-01-29T17:49:22.686Z,13.20
2023-01-29T17:51:50.608Z,13.40
2023-01-29T17:54:17.438Z,12.50
2023-01-29T17:56:44.102Z,12.60
2023-01-29T17:59:16.916Z,12.90
2023-01-29T18:01:44.962Z,12.60
2023-01-29T18:04:12.287Z,11.10
2023-01-29T18:06:40.306Z,9.70
2023-01-29T18:09:07.694Z,10.00
2023-01-29T18:11:35.507Z,11.80
2023-01-29T18:14:10.247Z,12.10
2023-01-29T18:16:42.036Z,12.60
2023-01-29T18:19:22.888Z,12.40
2023-01-29T18:21:50.652Z,12.90
2023-01-29T18:24:20.379Z,12.60
2023-01-29T18:26:48.133Z,13.60
2023-01-29T18:29:14.900Z,12.60
2023-01-29T18:31:41.723Z,12.70
2023-01-29T18:34:08.455Z,12.10
2023-01-29T18:36:35.158Z,12.10
2023-01-29T18:39:01.824Z,13.60
2023-01-29T18:41:29.653Z,12.80
2023-01-29T18:43:58.464Z,12.50
2023-01-29T18:46:25.234Z,12.00
2023-01-29T18:48:51.991Z,11.80
2023-01-29T18:51:18.739Z,12.50
2023-01-29T18:53:53.021Z,13.80
2023-01-29T18:56:20.277Z,12.60
2023-01-29T18:58:49.769Z,12.50
2023-01-29T19:01:19.770Z,12.10
2023-01-29T19:03:46.590Z,13.10
2023-01-29T19:06:13.336Z,13.10
2023-01-29T19:08:44.023Z,12.20
2023-01-29T19:11:12.429Z,12.50
2023-01-29T19:13:40.436Z,12.80
2023-01-29T19:16:10.106Z,12.20
2023-01-29T19:18:37.111Z,12.30
2023-01-29T19:21:07.905Z,12.60
2023-01-29T19:23:52.780Z,12.80
2023-01-29T19:26:33.991Z,13.50
2023-01-29T19:29:09.706Z,13.00
2023-01-29T19:31:38.503Z,13.10
2023-01-29T19:34:07.239Z,12.40
2023-01-29T19:36:33.988Z,13.60
2023-01-29T19:39:00.670Z,12.70
2023-01-29T19:41:27.488Z,12.60
2023-01-29T19:43:54.227Z,13.10
2023-01-29T19:46:21.020Z,12.50
2023-01-29T19:48:48.132Z,12.90
2023-01-29T19:51:14.976Z,13.10
2023-01-29T19:53:44.150Z,14.10
2023-01-29T19:56:15.541Z,12.00
2023-01-29T19:58:42.753Z,13.10
2023-01-29T20:01:21.032Z,12.20
2023-01-29T20:03:49.803Z,13.50
2023-01-29T20:06:22.717Z,12.30
2023-01-29T20:08:51.820Z,12.70
2023-01-29T20:11:20.946Z,12.30
2023-01-29T20:13:50.816Z,13.40
2023-01-29T20:16:18.694Z,13.40
2023-01-29T20:18:45.445Z,13.60
2023-01-29T20:21:15.143Z,13.60
2023-01-29T20:23:44.243Z,13.40
2023-01-29T20:26:22.428Z,13.80
2023-01-29T20:28:49.322Z,13.70
2023-01-29T20:31:16.496Z,13.10
2023-01-29T20:33:44.247Z,13.00
2023-01-29T20:36:14.658Z,13.20
2023-01-29T20:38:41.495Z,12.50
2023-01-29T20:41:09.348Z,12.50
2023-01-29T20:43:36.618Z,13.00
2023-01-29T20:46:03.918Z,12.80
2023-01-29T20:48:31.907Z,12.80
2023-01-29T20:51:12.344Z,12.30
2023-01-29T20:53:41.005Z,12.20
2023-01-29T20:56:17.602Z,12.20
2023-01-29T20:58:44.888Z,13.40
2023-01-29T21:01:14.207Z,14.00
2023-01-29T21:03:41.611Z,12.30
2023-01-29T21:06:09.704Z,13.40
2023-01-29T21:08:37.526Z,12.90
2023-01-29T21:11:05.242Z,12.60
2023-01-29T21:13:32.377Z,12.50
2023-01-29T21:15:59.178Z,12.80
2023-01-29T21:18:26.399Z,12.10
2023-01-29T21:20:54.257Z,12.50
2023-01-29T21:23:24.585Z,12.40
2023-01-29T21:25:56.333Z,12.90
2023-01-29T21:28:23.167Z,12.80
2023-01-29T21:30:49.876Z,12.40
2023-01-29T21:33:16.648Z,12.60
2023-01-29T21:35:43.376Z,12.20
2023-01-29T21:38:10.064Z,12.30
2023-01-29T21:40:36.804Z,11.90
2023-01-29T21:43:12.983Z,12.50
2023-01-29T21:45:40.430Z,12.00
2023-01-29T21:48:08.510Z,12.00
2023-01-29T21:50:37.173Z,11.80
2023-01-29T21:53:04.625Z,13.10
2023-01-29T21:55:32.439Z,12.50
2023-01-29T21:58:00.264Z,12.90
2023-01-29T22:00:27.407Z,12.40
2023-01-29T22:02:54.176Z,11.90
2023-01-29T22:05:20.993Z,13.20
2023-01-29T22:07:49.170Z,12.40
2023-01-29T22:10:17.719Z,12.40
2023-01-29T22:12:45.023Z,12.40
2023-01-29T22:15:12.351Z,12.40
2023-01-29T22:17:41.253Z,12.50
2023-01-29T22:20:13.815Z,12.70
2023-01-29T22:22:40.602Z,12.70
2023-01-29T22:25:07.997Z,11.90
2023-01-29T22:27:34.901Z,12.10
2023-01-29T22:30:03.054Z,12.10
2023-01-29T22:32:34.679Z,11.70
2023-01-29T22:35:01.502Z,11.80
2023-01-29T22:37:28.294Z,12.00
2023-01-29T22:39:55.053Z,11.50
2023-01-29T22:42:21.747Z,12.30
2023-01-29T22:44:48.675Z,12.00
2023-01-29T22:47:15.690Z,12.30
2023-01-29T22:49:44.548Z,11.90
2023-01-29T22:52:11.623Z,12.40
2023-01-29T22:54:42.935Z,12.30
2023-01-29T22:57:14.338Z,12.20
2023-01-29T22:59:41.462Z,12.50
2023-01-29T23:02:08.674Z,12.50
2023-01-29T23:04:35.473Z,12.00
2023-01-29T23:07:02.386Z,11.30
2023-01-29T23:09:29.409Z,11.80
2023-01-29T23:11:56.082Z,12.10
2023-01-29T23:14:22.946Z,12.30
2023-01-29T23:16:49.723Z,12.00
2023-01-29T23:19:16.514Z,12.70
2023-01-29T23:21:43.453Z,12.10
2023-01-29T23:24:11.441Z,11.60
2023-01-29T23:26:56.988Z,12.30
2023-01-29T23:29:23.810Z,11.80
2023-01-29T23:31:54.371Z,12.30
2023-01-29T23:34:21.112Z,11.50
2023-01-29T23:36:48.064Z,12.50
2023-01-29T23:39:15.255Z,12.80
2023-01-29T23:41:43.255Z,12.80
2023-01-29T23:44:09.939Z,12.50
2023-01-29T23:46:36.735Z,13.10
2023-01-29T23:49:03.500Z,13.20
2023-01-29T23:51:30.553Z,12.30
2023-01-29T23:53:57.402Z,12.70
2023-01-29T23:56:24.441Z,12.70
2023-01-29T23:58:57.782Z,11.60
